createdAt,value
2019-03-15T00:03:56.619Z,6.40
2019-03-15T00:08:48.307Z,7.10
2019-03-15T00:13:39.975Z,7.10
2019-03-15T00:18:30.895Z,7.00
2019-03-15T00:23:22.553Z,6.60
2019-03-15T00:28:14.239Z,6.40
2019-03-15T00:33:05.164Z,6.40
2019-03-15T00:37:56.595Z,6.30
2019-03-15T00:42:47.115Z,6.20
2019-03-15T00:47:38.039Z,6.40
2019-03-15T00:52:28.961Z,6.90
2019-03-15T00:57:20.705Z,6.60
2019-03-15T01:02:11.647Z,6.70
2019-03-15T01:07:02.524Z,6.40
2019-03-15T01:11:53.448Z,6.30
2019-03-15T01:16:44.377Z,6.20
2019-03-15T01:21:35.307Z,6.10
2019-03-15T01:26:26.983Z,7.00
2019-03-15T01:31:17.907Z,7.00
2019-03-15T01:36:08.831Z,6.90
2019-03-15T01:40:59.915Z,6.70
2019-03-15T01:45:50.725Z,6.60
2019-03-15T01:50:42.383Z,6.30
2019-03-15T01:55:33.328Z,6.30
2019-03-15T02:00:24.239Z,6.20
2019-03-15T02:05:15.138Z,6.60
2019-03-15T02:10:06.043Z,7.00
2019-03-15T02:14:56.946Z,6.90
2019-03-15T02:19:47.864Z,6.70
2019-03-15T02:24:38.782Z,6.60
2019-03-15T02:29:29.707Z,6.40
2019-03-15T02:34:21.376Z,6.30
2019-03-15T02:39:12.300Z,6.30
2019-03-15T02:44:03.242Z,6.70
2019-03-15T02:48:54.164Z,7.00
2019-03-15T02:53:45.094Z,6.90
2019-03-15T02:58:36.004Z,6.70
2019-03-15T03:03:26.924Z,6.50
2019-03-15T03:08:17.839Z,6.30
2019-03-15T03:13:08.770Z,6.30
2019-03-15T03:17:59.688Z,6.30
2019-03-15T03:22:50.599Z,6.80
2019-03-15T03:27:41.567Z,7.00
2019-03-15T03:32:32.442Z,6.90
2019-03-15T03:37:24.236Z,6.50
2019-03-15T03:42:15.044Z,6.50
2019-03-15T03:47:05.973Z,6.40
2019-03-15T03:51:57.008Z,6.30
2019-03-15T03:56:47.915Z,6.40
2019-03-15T04:01:38.824Z,7.00
2019-03-15T04:06:29.724Z,7.00
2019-03-15T04:11:21.384Z,6.60
2019-03-15T04:16:12.304Z,6.60
2019-03-15T04:21:03.206Z,6.50
2019-03-15T04:25:54.867Z,6.30
2019-03-15T04:30:45.780Z,6.30
2019-03-15T04:35:36.692Z,6.60
2019-03-15T04:40:27.603Z,7.10
2019-03-15T04:45:19.601Z,7.10
2019-03-15T04:50:10.518Z,6.80
2019-03-15T04:55:01.479Z,6.60
2019-03-15T04:59:52.380Z,6.50
2019-03-15T05:04:43.304Z,6.30
2019-03-15T05:09:34.951Z,6.60
2019-03-15T05:14:26.593Z,7.00
2019-03-15T05:19:18.241Z,7.00
2019-03-15T05:24:09.226Z,7.00
2019-03-15T05:29:00.143Z,6.80
2019-03-15T05:33:51.059Z,6.60
2019-03-15T05:38:43.532Z,6.30
2019-03-15T05:43:34.411Z,6.30
2019-03-15T05:48:26.067Z,6.60
2019-03-15T05:53:16.987Z,6.60
2019-03-15T05:58:07.940Z,7.10
2019-03-15T06:02:58.844Z,7.00
2019-03-15T06:07:49.783Z,6.80
2019-03-15T06:12:40.678Z,6.60
2019-03-15T06:17:32.343Z,6.40
2019-03-15T06:22:23.269Z,6.30
2019-03-15T06:27:21.308Z,6.30
2019-03-15T06:32:12.325Z,6.80
2019-03-15T06:37:03.165Z,7.10
2019-03-15T06:41:54.835Z,6.80
2019-03-15T06:46:45.751Z,6.80
2019-03-15T06:51:36.651Z,6.60
2019-03-15T06:56:27.565Z,6.50
2019-03-15T07:01:18.484Z,6.50
2019-03-15T07:06:09.390Z,6.60
2019-03-15T07:11:01.052Z,7.30
2019-03-15T07:15:51.951Z,7.30
2019-03-15T07:20:42.863Z,7.20
2019-03-15T07:25:34.533Z,6.90
2019-03-15T07:30:25.436Z,6.90
2019-03-15T07:35:16.347Z,6.90
2019-03-15T07:40:08.236Z,6.90
2019-03-15T07:44:59.166Z,7.00
2019-03-15T07:49:50.821Z,7.80
2019-03-15T07:54:42.496Z,7.70
2019-03-15T07:59:33.414Z,7.70
2019-03-15T08:04:24.415Z,7.60
2019-03-15T08:09:15.268Z,7.50
2019-03-15T08:14:06.184Z,7.40
2019-03-15T08:18:57.124Z,7.40
2019-03-15T08:23:48.056Z,7.70
2019-03-15T08:28:40.473Z,8.20
2019-03-15T08:33:31.399Z,8.30
2019-03-15T08:38:22.305Z,8.20
2019-03-15T08:43:13.216Z,8.10
2019-03-15T08:48:04.185Z,8.00
2019-03-15T08:52:55.092Z,8.00
2019-03-15T08:57:46.073Z,8.00
2019-03-15T09:02:36.984Z,8.60
2019-03-15T09:07:27.895Z,8.90
2019-03-15T09:12:18.814Z,8.80
2019-03-15T09:17:09.746Z,8.70
2019-03-15T09:22:00.889Z,8.70
2019-03-15T09:26:51.608Z,8.70
2019-03-15T09:31:47.647Z,8.70
2019-03-15T09:36:34.221Z,9.70
2019-03-15T09:41:31.450Z,9.70
2019-03-15T09:46:16.094Z,9.80
2019-03-15T09:51:07.017Z,9.70
2019-03-15T09:55:57.922Z,9.60
2019-03-15T10:00:48.836Z,9.60
2019-03-15T10:05:39.750Z,9.50
2019-03-15T10:10:30.674Z,9.70
2019-03-15T10:15:21.596Z,10.30
2019-03-15T10:20:12.867Z,10.50
2019-03-15T10:25:04.254Z,10.40
2019-03-15T10:29:55.180Z,10.30
2019-03-15T10:34:46.098Z,10.20
2019-03-15T10:39:37.028Z,10.10
2019-03-15T10:44:27.954Z,10.20
2019-03-15T10:49:18.854Z,10.70
2019-03-15T10:54:09.761Z,10.80
2019-03-15T10:59:00.713Z,10.70
2019-03-15T11:03:51.655Z,10.50
2019-03-15T11:08:43.320Z,10.50
2019-03-15T11:13:34.249Z,10.40
2019-03-15T11:18:25.176Z,10.50
2019-03-15T11:23:16.095Z,11.10
2019-03-15T11:28:07.048Z,11.40
2019-03-15T11:32:58.017Z,11.40
2019-03-15T11:37:48.935Z,11.30
2019-03-15T11:42:39.868Z,11.20
2019-03-15T11:47:45.863Z,11.20
2019-03-15T11:52:21.759Z,11.40
2019-03-15T11:57:12.670Z,11.90
2019-03-15T12:02:04.511Z,12.10
2019-03-15T12:06:54.515Z,11.90
2019-03-15T12:11:45.436Z,11.70
2019-03-15T12:16:36.355Z,11.60
2019-03-15T12:21:27.275Z,11.40
2019-03-15T12:26:18.178Z,11.70
2019-03-15T12:31:09.107Z,12.00
2019-03-15T12:36:03.195Z,11.60
2019-03-15T12:40:51.724Z,11.60
2019-03-15T12:45:42.629Z,11.20
2019-03-15T12:50:33.548Z,11.00
2019-03-15T12:55:24.474Z,11.00
2019-03-15T13:00:17.226Z,11.50
2019-03-15T13:05:08.140Z,11.50
2019-03-15T13:09:59.051Z,11.40
2019-03-15T13:14:49.958Z,11.10
2019-03-15T13:19:54.252Z,10.80
2019-03-15T13:24:32.556Z,10.80
2019-03-15T13:29:23.480Z,10.80
2019-03-15T13:34:14.444Z,11.20
2019-03-15T13:39:05.343Z,11.20
2019-03-15T13:43:56.259Z,10.90
2019-03-15T13:48:47.927Z,10.40
2019-03-15T13:53:39.593Z,10.20
2019-03-15T13:58:30.504Z,10.10
2019-03-15T14:03:21.900Z,10.40
2019-03-15T14:08:13.687Z,10.50
2019-03-15T14:13:04.616Z,10.40
2019-03-15T14:17:55.514Z,10.20
2019-03-15T14:22:46.500Z,9.90
2019-03-15T14:27:38.187Z,9.70
2019-03-15T14:32:29.099Z,9.70
2019-03-15T14:37:20.235Z,10.10
2019-03-15T14:42:11.041Z,10.10
2019-03-15T14:47:02.640Z,9.60
2019-03-15T14:51:53.566Z,9.60
2019-03-15T14:56:44.545Z,9.40
2019-03-15T15:01:35.466Z,9.20
2019-03-15T15:06:26.393Z,9.40
2019-03-15T15:11:18.784Z,9.80
2019-03-15T15:16:09.728Z,9.80
2019-03-15T15:21:00.630Z,9.50
2019-03-15T15:25:51.533Z,9.30
2019-03-15T15:30:42.454Z,9.10
2019-03-15T15:35:33.475Z,9.00
2019-03-15T15:40:24.359Z,9.40
2019-03-15T15:45:15.288Z,9.80
2019-03-15T15:50:07.927Z,9.50
2019-03-15T15:54:58.834Z,9.50
2019-03-15T15:59:49.762Z,9.40
2019-03-15T16:04:41.428Z,9.30
2019-03-15T16:09:33.084Z,9.70
2019-03-15T16:14:24.013Z,9.70
2019-03-15T16:19:14.948Z,10.00
2019-03-15T16:24:05.869Z,9.90
2019-03-15T16:28:56.770Z,9.80
2019-03-15T16:33:47.727Z,9.60
2019-03-15T16:38:40.123Z,9.60
2019-03-15T16:43:31.450Z,9.60
2019-03-15T16:48:22.377Z,10.10
2019-03-15T16:53:13.292Z,10.20
2019-03-15T16:58:04.206Z,10.10
2019-03-15T17:02:55.133Z,9.90
2019-03-15T17:07:46.116Z,9.70
2019-03-15T17:12:37.044Z,9.50
2019-03-15T17:17:28.714Z,10.10
2019-03-15T17:22:19.619Z,10.10
2019-03-15T17:27:10.544Z,10.10
2019-03-15T17:32:01.477Z,9.90
2019-03-15T17:37:05.719Z,9.60
2019-03-15T17:41:43.325Z,9.50
2019-03-15T17:46:34.226Z,9.30
2019-03-15T17:51:25.142Z,9.50
2019-03-15T17:56:16.107Z,9.90
2019-03-15T18:01:07.010Z,9.90
2019-03-15T18:05:57.943Z,9.60
2019-03-15T18:10:48.867Z,9.40
2019-03-15T18:15:39.800Z,9.20
2019-03-15T18:20:32.149Z,9.10
2019-03-15T18:25:23.233Z,9.10
2019-03-15T18:30:14.147Z,9.60
2019-03-15T18:35:05.063Z,9.60
2019-03-15T18:39:55.976Z,9.30
2019-03-15T18:44:46.905Z,9.10
2019-03-15T18:49:37.850Z,8.90
2019-03-15T18:54:28.762Z,8.70
2019-03-15T18:59:40.013Z,8.80
2019-03-15T19:04:25.632Z,9.30
2019-03-15T19:09:16.549Z,9.30
2019-03-15T19:14:07.472Z,9.00
2019-03-15T19:18:58.400Z,8.80
2019-03-15T19:23:49.306Z,8.70
2019-03-15T19:28:40.208Z,8.50
2019-03-15T19:33:31.135Z,8.60
2019-03-15T19:38:22.056Z,9.10
2019-03-15T19:43:12.973Z,9.10
2019-03-15T19:48:03.892Z,8.80
2019-03-15T19:52:54.814Z,8.50
2019-03-15T19:57:45.731Z,8.40
2019-03-15T20:02:36.658Z,8.20
2019-03-15T20:07:30.423Z,8.10
2019-03-15T20:12:21.352Z,8.50
2019-03-15T20:17:12.276Z,8.60
2019-03-15T20:22:03.196Z,8.40
2019-03-15T20:26:54.108Z,8.20
2019-03-15T20:31:45.028Z,8.00
2019-03-15T20:36:35.939Z,7.80
2019-03-15T20:41:26.865Z,7.70
2019-03-15T20:46:17.788Z,8.00
2019-03-15T20:51:08.707Z,8.40
2019-03-15T20:55:59.623Z,8.20
2019-03-15T21:00:50.545Z,7.90
2019-03-15T21:05:41.480Z,7.70
2019-03-15T21:10:32.455Z,7.50
2019-03-15T21:15:24.103Z,7.60
2019-03-15T21:20:15.956Z,7.60
2019-03-15T21:25:06.894Z,8.10
2019-03-15T21:29:57.806Z,8.00
2019-03-15T21:34:48.710Z,7.80
2019-03-15T21:39:39.623Z,7.50
2019-03-15T21:44:30.539Z,7.40
2019-03-15T21:49:21.458Z,7.20
2019-03-15T21:54:12.392Z,7.10
2019-03-15T21:59:03.312Z,7.50
2019-03-15T22:03:54.748Z,7.80
2019-03-15T22:08:45.657Z,7.60
2019-03-15T22:13:36.628Z,7.40
2019-03-15T22:18:27.549Z,7.20
2019-03-15T22:23:19.198Z,6.90
2019-03-15T22:28:10.853Z,7.00
2019-03-15T22:33:01.781Z,7.00
2019-03-15T22:37:52.693Z,7.50
2019-03-15T22:42:43.612Z,7.50
2019-03-15T22:47:34.533Z,7.30
2019-03-15T22:52:25.451Z,7.00
2019-03-15T22:57:16.376Z,6.90
2019-03-15T23:02:07.316Z,6.70
2019-03-15T23:06:58.231Z,6.60
2019-03-15T23:11:49.147Z,7.00
2019-03-15T23:16:40.280Z,7.40
2019-03-15T23:21:31.208Z,7.30
2019-03-15T23:26:22.901Z,6.80
2019-03-15T23:31:13.826Z,6.80
2019-03-15T23:36:04.744Z,6.60
2019-03-15T23:40:55.658Z,6.50
2019-03-15T23:45:46.563Z,6.50
2019-03-15T23:50:38.243Z,7.10
2019-03-15T23:55:29.157Z,7.10
